sensor_id;sensor_type;location;lat;lon;timestamp;P1;durP1;ratioP1;P2;durP2;ratioP2
37241;SDS011;23135;51.078;12.108;2024-03-17T00:02:18;0.73;;;0.47;;
37241;SDS011;23135;51.078;12.108;2024-03-17T00:04:47;5.63;;;0.47;;
37241;SDS011;23135;51.078;12.108;2024-03-17T00:07:13;1.40;;;0.10;;
37241;SDS011;23135;51.078;12.108;2024-03-17T00:09:39;1.55;;;0.40;;
37241;SDS011;23135;51.078;12.108;2024-03-17T00:12:05;5.65;;;0.30;;
37241;SDS011;23135;51.078;12.108;2024-03-17T00:14:32;8.80;;;0.68;;
37241;SDS011;23135;51.078;12.108;2024-03-17T00:16:59;5.43;;;0.30;;
37241;SDS011;23135;51.078;12.108;2024-03-17T00:19:25;3.03;;;0.35;;
37241;SDS011;23135;51.078;12.108;2024-03-17T00:21:51;3.95;;;0.88;;
37241;SDS011;23135;51.078;12.108;2024-03-17T00:24:16;1.23;;;0.40;;
37241;SDS011;23135;51.078;12.108;2024-03-17T00:26:42;1.60;;;0.52;;
37241;SDS011;23135;51.078;12.108;2024-03-17T00:29:08;8.63;;;0.65;;
37241;SDS011;23135;51.078;12.108;2024-03-17T00:31:33;1.52;;;0.20;;
37241;SDS011;23135;51.078;12.108;2024-03-17T00:33:59;4.88;;;0.32;;
37241;SDS011;23135;51.078;12.108;2024-03-17T00:36:25;7.97;;;1.02;;
37241;SDS011;23135;51.078;12.108;2024-03-17T00:38:50;4.22;;;0.88;;
37241;SDS011;23135;51.078;12.108;2024-03-17T00:41:17;8.43;;;0.98;;
37241;SDS011;23135;51.078;12.108;2024-03-17T00:43:44;1.92;;;0.50;;
37241;SDS011;23135;51.078;12.108;2024-03-17T00:46:09;1.67;;;0.75;;
37241;SDS011;23135;51.078;12.108;2024-03-17T00:48:35;2.88;;;0.50;;
37241;SDS011;23135;51.078;12.108;2024-03-17T00:51:00;1.95;;;0.50;;
37241;SDS011;23135;51.078;12.108;2024-03-17T00:53:27;5.65;;;0.98;;
37241;SDS011;23135;51.078;12.108;2024-03-17T00:55:54;0.88;;;0.32;;
37241;SDS011;23135;51.078;12.108;2024-03-17T00:58:22;4.50;;;0.70;;
37241;SDS011;23135;51.078;12.108;2024-03-17T01:00:48;1.63;;;0.50;;
37241;SDS011;23135;51.078;12.108;2024-03-17T01:03:14;5.60;;;0.45;;
37241;SDS011;23135;51.078;12.108;2024-03-17T01:05:40;2.88;;;0.32;;
37241;SDS011;23135;51.078;12.108;2024-03-17T01:08:07;9.63;;;1.60;;
37241;SDS011;23135;51.078;12.108;2024-03-17T01:10:36;7.40;;;0.70;;
37241;SDS011;23135;51.078;12.108;2024-03-17T01:13:08;4.25;;;0.40;;
37241;SDS011;23135;51.078;12.108;2024-03-17T01:15:38;8.50;;;2.00;;
37241;SDS011;23135;51.078;12.108;2024-03-17T01:18:04;2.65;;;0.38;;
37241;SDS011;23135;51.078;12.108;2024-03-17T01:20:37;1.17;;;0.32;;
37241;SDS011;23135;51.078;12.108;2024-03-17T01:23:04;3.10;;;2.08;;
37241;SDS011;23135;51.078;12.108;2024-03-17T01:25:30;3.63;;;0.60;;
37241;SDS011;23135;51.078;12.108;2024-03-17T01:27:56;7.97;;;0.82;;
37241;SDS011;23135;51.078;12.108;2024-03-17T01:30:22;4.25;;;1.00;;
37241;SDS011;23135;51.078;12.108;2024-03-17T01:32:48;2.28;;;0.40;;
37241;SDS011;23135;51.078;12.108;2024-03-17T01:35:16;5.47;;;0.50;;
37241;SDS011;23135;51.078;12.108;2024-03-17T01:37:42;3.58;;;0.45;;
37241;SDS011;23135;51.078;12.108;2024-03-17T01:40:08;2.45;;;0.50;;
37241;SDS011;23135;51.078;12.108;2024-03-17T01:42:37;3.83;;;0.40;;
37241;SDS011;23135;51.078;12.108;2024-03-17T01:47:58;5.00;;;0.65;;
37241;SDS011;23135;51.078;12.108;2024-03-17T01:50:31;3.20;;;0.95;;
37241;SDS011;23135;51.078;12.108;2024-03-17T01:53:00;5.35;;;0.52;;
37241;SDS011;23135;51.078;12.108;2024-03-17T01:55:30;1.75;;;0.10;;
37241;SDS011;23135;51.078;12.108;2024-03-17T01:57:59;5.95;;;0.25;;
37241;SDS011;23135;51.078;12.108;2024-03-17T02:00:26;1.67;;;0.30;;
37241;SDS011;23135;51.078;12.108;2024-03-17T02:02:53;2.45;;;0.15;;
37241;SDS011;23135;51.078;12.108;2024-03-17T02:05:19;0.65;;;0.17;;
37241;SDS011;23135;51.078;12.108;2024-03-17T02:07:44;1.40;;;0.10;;
37241;SDS011;23135;51.078;12.108;2024-03-17T02:10:10;2.35;;;0.22;;
37241;SDS011;23135;51.078;12.108;2024-03-17T02:12:36;3.35;;;0.17;;
37241;SDS011;23135;51.078;12.108;2024-03-17T02:15:02;5.00;;;0.40;;
37241;SDS011;23135;51.078;12.108;2024-03-17T02:17:32;6.53;;;0.32;;
37241;SDS011;23135;51.078;12.108;2024-03-17T02:19:58;5.95;;;0.65;;
37241;SDS011;23135;51.078;12.108;2024-03-17T02:22:24;2.50;;;0.20;;
37241;SDS011;23135;51.078;12.108;2024-03-17T02:24:50;1.77;;;0.28;;
37241;SDS011;23135;51.078;12.108;2024-03-17T02:27:16;4.60;;;0.20;;
37241;SDS011;23135;51.078;12.108;2024-03-17T02:29:41;6.00;;;0.35;;
37241;SDS011;23135;51.078;12.108;2024-03-17T02:32:07;1.42;;;0.30;;
37241;SDS011;23135;51.078;12.108;2024-03-17T02:34:33;1.55;;;0.35;;
37241;SDS011;23135;51.078;12.108;2024-03-17T02:37:00;4.72;;;0.85;;
37241;SDS011;23135;51.078;12.108;2024-03-17T02:39:26;7.00;;;1.67;;
37241;SDS011;23135;51.078;12.108;2024-03-17T02:42:04;3.35;;;0.60;;
37241;SDS011;23135;51.078;12.108;2024-03-17T02:44:34;6.40;;;0.55;;
37241;SDS011;23135;51.078;12.108;2024-03-17T02:47:02;6.10;;;0.45;;
37241;SDS011;23135;51.078;12.108;2024-03-17T02:49:29;5.22;;;1.83;;
37241;SDS011;23135;51.078;12.108;2024-03-17T02:52:01;4.15;;;0.55;;
37241;SDS011;23135;51.078;12.108;2024-03-17T02:54:37;1.98;;;0.90;;
37241;SDS011;23135;51.078;12.108;2024-03-17T02:57:03;1.77;;;0.35;;
37241;SDS011;23135;51.078;12.108;2024-03-17T02:59:30;8.77;;;0.70;;
37241;SDS011;23135;51.078;12.108;2024-03-17T03:01:56;9.50;;;1.02;;
37241;SDS011;23135;51.078;12.108;2024-03-17T03:04:23;5.18;;;0.85;;
37241;SDS011;23135;51.078;12.108;2024-03-17T03:06:49;4.72;;;0.47;;
37241;SDS011;23135;51.078;12.108;2024-03-17T03:09:14;3.92;;;0.55;;
37241;SDS011;23135;51.078;12.108;2024-03-17T03:11:45;3.53;;;0.45;;
37241;SDS011;23135;51.078;12.108;2024-03-17T03:14:11;2.50;;;0.30;;
37241;SDS011;23135;51.078;12.108;2024-03-17T03:16:37;2.08;;;0.30;;
37241;SDS011;23135;51.078;12.108;2024-03-17T03:19:03;6.15;;;0.40;;
37241;SDS011;23135;51.078;12.108;2024-03-17T03:21:30;1.02;;;0.38;;
37241;SDS011;23135;51.078;12.108;2024-03-17T03:23:56;3.65;;;0.73;;
37241;SDS011;23135;51.078;12.108;2024-03-17T03:26:21;1.65;;;0.60;;
37241;SDS011;23135;51.078;12.108;2024-03-17T03:28:48;8.65;;;0.88;;
37241;SDS011;23135;51.078;12.108;2024-03-17T03:31:14;9.70;;;1.95;;
37241;SDS011;23135;51.078;12.108;2024-03-17T03:33:40;5.20;;;1.10;;
37241;SDS011;23135;51.078;12.108;2024-03-17T03:38:38;6.60;;;0.45;;
37241;SDS011;23135;51.078;12.108;2024-03-17T03:41:11;5.07;;;1.08;;
37241;SDS011;23135;51.078;12.108;2024-03-17T03:43:38;8.00;;;1.50;;
37241;SDS011;23135;51.078;12.108;2024-03-17T03:46:04;4.05;;;0.75;;
37241;SDS011;23135;51.078;12.108;2024-03-17T03:48:30;5.32;;;0.70;;
37241;SDS011;23135;51.078;12.108;2024-03-17T03:50:57;2.78;;;0.70;;
37241;SDS011;23135;51.078;12.108;2024-03-17T03:53:23;5.63;;;0.98;;
37241;SDS011;23135;51.078;12.108;2024-03-17T03:55:49;5.85;;;0.57;;
37241;SDS011;23135;51.078;12.108;2024-03-17T03:58:14;4.45;;;0.90;;
37241;SDS011;23135;51.078;12.108;2024-03-17T04:00:40;2.50;;;0.95;;
37241;SDS011;23135;51.078;12.108;2024-03-17T04:03:06;2.63;;;0.88;;
37241;SDS011;23135;51.078;12.108;2024-03-17T04:05:32;4.88;;;0.93;;
37241;SDS011;23135;51.078;12.108;2024-03-17T04:07:59;7.35;;;1.83;;
37241;SDS011;23135;51.078;12.108;2024-03-17T04:10:25;4.57;;;0.40;;
37241;SDS011;23135;51.078;12.108;2024-03-17T04:12:51;2.55;;;0.73;;
37241;SDS011;23135;51.078;12.108;2024-03-17T04:15:17;8.02;;;1.23;;
37241;SDS011;23135;51.078;12.108;2024-03-17T04:17:43;6.05;;;0.98;;
37241;SDS011;23135;51.078;12.108;2024-03-17T04:20:09;4.80;;;1.05;;
37241;SDS011;23135;51.078;12.108;2024-03-17T04:22:38;3.60;;;1.20;;
37241;SDS011;23135;51.078;12.108;2024-03-17T04:25:10;2.97;;;0.68;;
37241;SDS011;23135;51.078;12.108;2024-03-17T04:27:38;9.15;;;0.88;;
37241;SDS011;23135;51.078;12.108;2024-03-17T04:30:04;8.27;;;2.55;;
37241;SDS011;23135;51.078;12.108;2024-03-17T04:32:31;4.45;;;1.13;;
37241;SDS011;23135;51.078;12.108;2024-03-17T04:34:57;2.00;;;0.68;;
37241;SDS011;23135;51.078;12.108;2024-03-17T04:37:22;18.63;;;2.40;;
37241;SDS011;23135;51.078;12.108;2024-03-17T04:39:49;2.47;;;1.02;;
37241;SDS011;23135;51.078;12.108;2024-03-17T04:42:16;2.30;;;0.70;;
37241;SDS011;23135;51.078;12.108;2024-03-17T04:44:43;4.20;;;2.38;;
37241;SDS011;23135;51.078;12.108;2024-03-17T04:47:09;3.97;;;1.25;;
37241;SDS011;23135;51.078;12.108;2024-03-17T04:49:38;4.32;;;1.30;;
37241;SDS011;23135;51.078;12.108;2024-03-17T04:52:05;3.83;;;1.40;;
37241;SDS011;23135;51.078;12.108;2024-03-17T04:54:32;11.65;;;1.65;;
37241;SDS011;23135;51.078;12.108;2024-03-17T04:56:58;4.47;;;0.75;;
37241;SDS011;23135;51.078;12.108;2024-03-17T04:59:24;4.13;;;0.98;;
37241;SDS011;23135;51.078;12.108;2024-03-17T05:01:50;1.85;;;0.63;;
37241;SDS011;23135;51.078;12.108;2024-03-17T05:04:16;7.05;;;0.85;;
37241;SDS011;23135;51.078;12.108;2024-03-17T05:06:42;5.40;;;1.33;;
37241;SDS011;23135;51.078;12.108;2024-03-17T05:09:12;8.93;;;0.68;;
37241;SDS011;23135;51.078;12.108;2024-03-17T05:11:47;4.68;;;0.95;;
37241;SDS011;23135;51.078;12.108;2024-03-17T05:14:16;3.33;;;0.80;;
37241;SDS011;23135;51.078;12.108;2024-03-17T05:16:44;5.40;;;1.63;;
37241;SDS011;23135;51.078;12.108;2024-03-17T05:19:09;7.47;;;1.27;;
37241;SDS011;23135;51.078;12.108;2024-03-17T05:21:36;7.43;;;2.05;;
37241;SDS011;23135;51.078;12.108;2024-03-17T05:24:01;8.30;;;2.53;;
37241;SDS011;23135;51.078;12.108;2024-03-17T05:26:27;6.05;;;2.60;;
37241;SDS011;23135;51.078;12.108;2024-03-17T05:28:53;6.55;;;1.60;;
37241;SDS011;23135;51.078;12.108;2024-03-17T05:31:19;12.15;;;1.70;;
37241;SDS011;23135;51.078;12.108;2024-03-17T05:33:46;7.90;;;2.50;;
37241;SDS011;23135;51.078;12.108;2024-03-17T05:36:12;4.20;;;1.95;;
37241;SDS011;23135;51.078;12.108;2024-03-17T05:38:38;6.00;;;2.30;;
37241;SDS011;23135;51.078;12.108;2024-03-17T05:41:04;8.10;;;2.30;;
37241;SDS011;23135;51.078;12.108;2024-03-17T05:43:35;8.02;;;1.80;;
37241;SDS011;23135;51.078;12.108;2024-03-17T05:46:01;6.10;;;1.85;;
37241;SDS011;23135;51.078;12.108;2024-03-17T05:48:28;10.18;;;2.40;;
37241;SDS011;23135;51.078;12.108;2024-03-17T05:50:54;6.75;;;2.30;;
37241;SDS011;23135;51.078;12.108;2024-03-17T05:53:20;6.55;;;2.53;;
37241;SDS011;23135;51.078;12.108;2024-03-17T05:55:48;14.15;;;2.28;;
37241;SDS011;23135;51.078;12.108;2024-03-17T05:58:15;7.93;;;3.10;;
37241;SDS011;23135;51.078;12.108;2024-03-17T06:00:41;6.80;;;2.00;;
37241;SDS011;23135;51.078;12.108;2024-03-17T06:03:07;6.40;;;2.15;;
37241;SDS011;23135;51.078;12.108;2024-03-17T06:05:37;11.77;;;2.90;;
37241;SDS011;23135;51.078;12.108;2024-03-17T06:08:05;9.75;;;2.05;;
37241;SDS011;23135;51.078;12.108;2024-03-17T06:10:33;5.88;;;2.65;;
37241;SDS011;23135;51.078;12.108;2024-03-17T06:13:00;7.45;;;2.00;;
37241;SDS011;23135;51.078;12.108;2024-03-17T06:15:27;6.93;;;2.47;;
37241;SDS011;23135;51.078;12.108;2024-03-17T06:17:52;2.85;;;1.92;;
37241;SDS011;23135;51.078;12.108;2024-03-17T06:20:25;11.63;;;4.10;;
37241;SDS011;23135;51.078;12.108;2024-03-17T06:22:53;7.13;;;2.80;;
37241;SDS011;23135;51.078;12.108;2024-03-17T06:25:20;5.72;;;3.95;;
37241;SDS011;23135;51.078;12.108;2024-03-17T06:27:48;7.72;;;3.63;;
37241;SDS011;23135;51.078;12.108;2024-03-17T06:30:17;9.85;;;3.22;;
37241;SDS011;23135;51.078;12.108;2024-03-17T06:32:43;7.28;;;3.85;;
37241;SDS011;23135;51.078;12.108;2024-03-17T06:35:13;10.95;;;5.90;;
37241;SDS011;23135;51.078;12.108;2024-03-17T06:37:43;14.77;;;3.70;;
37241;SDS011;23135;51.078;12.108;2024-03-17T06:40:12;6.15;;;3.92;;
37241;SDS011;23135;51.078;12.108;2024-03-17T06:42:39;15.32;;;4.35;;
37241;SDS011;23135;51.078;12.108;2024-03-17T06:45:05;10.02;;;3.42;;
37241;SDS011;23135;51.078;12.108;2024-03-17T06:47:34;9.82;;;5.03;;
37241;SDS011;23135;51.078;12.108;2024-03-17T06:50:02;8.55;;;3.22;;
37241;SDS011;23135;51.078;12.108;2024-03-17T06:52:34;7.72;;;3.72;;
37241;SDS011;23135;51.078;12.108;2024-03-17T06:55:00;8.68;;;3.97;;
37241;SDS011;23135;51.078;12.108;2024-03-17T06:57:26;9.07;;;4.38;;
37241;SDS011;23135;51.078;12.108;2024-03-17T06:59:52;15.93;;;4.60;;
37241;SDS011;23135;51.078;12.108;2024-03-17T07:02:18;6.22;;;3.42;;
37241;SDS011;23135;51.078;12.108;2024-03-17T07:04:45;9.07;;;3.20;;
37241;SDS011;23135;51.078;12.108;2024-03-17T07:07:11;4.57;;;2.60;;
37241;SDS011;23135;51.078;12.108;2024-03-17T07:09:38;7.25;;;3.10;;
37241;SDS011;23135;51.078;12.108;2024-03-17T07:12:08;8.68;;;3.47;;
37241;SDS011;23135;51.078;12.108;2024-03-17T07:14:35;10.15;;;3.13;;
37241;SDS011;23135;51.078;12.108;2024-03-17T07:17:00;4.85;;;2.70;;
37241;SDS011;23135;51.078;12.108;2024-03-17T07:19:26;10.25;;;3.55;;
37241;SDS011;23135;51.078;12.108;2024-03-17T07:21:52;4.90;;;2.38;;
37241;SDS011;23135;51.078;12.108;2024-03-17T07:24:17;6.63;;;3.58;;
37241;SDS011;23135;51.078;12.108;2024-03-17T07:26:43;4.82;;;2.78;;
37241;SDS011;23135;51.078;12.108;2024-03-17T07:29:09;14.35;;;3.78;;
37241;SDS011;23135;51.078;12.108;2024-03-17T07:31:35;6.22;;;2.67;;
37241;SDS011;23135;51.078;12.108;2024-03-17T07:34:00;5.50;;;2.15;;
37241;SDS011;23135;51.078;12.108;2024-03-17T07:36:26;8.77;;;2.63;;
37241;SDS011;23135;51.078;12.108;2024-03-17T07:38:52;5.32;;;1.75;;
37241;SDS011;23135;51.078;12.108;2024-03-17T07:41:17;5.70;;;2.38;;
37241;SDS011;23135;51.078;12.108;2024-03-17T07:43:44;7.57;;;2.97;;
37241;SDS011;23135;51.078;12.108;2024-03-17T07:46:11;6.88;;;2.45;;
37241;SDS011;23135;51.078;12.108;2024-03-17T07:48:38;5.28;;;1.88;;
37241;SDS011;23135;51.078;12.108;2024-03-17T07:51:08;7.47;;;1.90;;
37241;SDS011;23135;51.078;12.108;2024-03-17T07:53:36;4.13;;;2.30;;
37241;SDS011;23135;51.078;12.108;2024-03-17T07:56:06;8.35;;;2.97;;
37241;SDS011;23135;51.078;12.108;2024-03-17T07:58:36;17.13;;;3.50;;
37241;SDS011;23135;51.078;12.108;2024-03-17T08:01:07;7.18;;;2.03;;
37241;SDS011;23135;51.078;12.108;2024-03-17T08:03:35;10.63;;;3.40;;
37241;SDS011;23135;51.078;12.108;2024-03-17T08:06:03;12.07;;;3.83;;
37241;SDS011;23135;51.078;12.108;2024-03-17T08:08:29;9.35;;;3.08;;
37241;SDS011;23135;51.078;12.108;2024-03-17T08:10:56;4.53;;;1.80;;
37241;SDS011;23135;51.078;12.108;2024-03-17T08:13:22;5.93;;;2.88;;
37241;SDS011;23135;51.078;12.108;2024-03-17T08:15:55;2.92;;;2.20;;
37241;SDS011;23135;51.078;12.108;2024-03-17T08:18:21;5.13;;;1.75;;
37241;SDS011;23135;51.078;12.108;2024-03-17T08:20:47;3.97;;;1.92;;
37241;SDS011;23135;51.078;12.108;2024-03-17T08:23:12;7.65;;;1.98;;
37241;SDS011;23135;51.078;12.108;2024-03-17T08:25:38;7.93;;;2.47;;
37241;SDS011;23135;51.078;12.108;2024-03-17T08:28:04;6.88;;;2.08;;
37241;SDS011;23135;51.078;12.108;2024-03-17T08:30:30;8.00;;;2.08;;
37241;SDS011;23135;51.078;12.108;2024-03-17T08:32:56;9.80;;;2.85;;
37241;SDS011;23135;51.078;12.108;2024-03-17T08:35:22;8.02;;;1.88;;
37241;SDS011;23135;51.078;12.108;2024-03-17T08:37:48;6.30;;;1.38;;
37241;SDS011;23135;51.078;12.108;2024-03-17T08:40:13;8.30;;;1.48;;
37241;SDS011;23135;51.078;12.108;2024-03-17T08:42:39;3.33;;;0.88;;
37241;SDS011;23135;51.078;12.108;2024-03-17T08:45:05;6.13;;;1.55;;
37241;SDS011;23135;51.078;12.108;2024-03-17T08:47:31;5.25;;;1.65;;
37241;SDS011;23135;51.078;12.108;2024-03-17T08:49:57;6.88;;;2.47;;
37241;SDS011;23135;51.078;12.108;2024-03-17T08:52:23;7.38;;;2.80;;
37241;SDS011;23135;51.078;12.108;2024-03-17T08:54:49;4.10;;;1.73;;
37241;SDS011;23135;51.078;12.108;2024-03-17T08:57:18;4.00;;;1.67;;
37241;SDS011;23135;51.078;12.108;2024-03-17T08:59:47;3.45;;;1.33;;
37241;SDS011;23135;51.078;12.108;2024-03-17T09:02:13;4.53;;;2.17;;
37241;SDS011;23135;51.078;12.108;2024-03-17T09:04:40;6.80;;;1.75;;
37241;SDS011;23135;51.078;12.108;2024-03-17T09:07:06;4.72;;;0.93;;
37241;SDS011;23135;51.078;12.108;2024-03-17T09:09:31;7.45;;;1.33;;
37241;SDS011;23135;51.078;12.108;2024-03-17T09:11:57;9.05;;;2.30;;
37241;SDS011;23135;51.078;12.108;2024-03-17T09:14:23;8.27;;;1.60;;
37241;SDS011;23135;51.078;12.108;2024-03-17T09:16:49;6.15;;;1.45;;
37241;SDS011;23135;51.078;12.108;2024-03-17T09:19:14;2.90;;;1.17;;
37241;SDS011;23135;51.078;12.108;2024-03-17T09:21:40;6.15;;;1.65;;
37241;SDS011;23135;51.078;12.108;2024-03-17T09:24:08;5.38;;;1.90;;
37241;SDS011;23135;51.078;12.108;2024-03-17T09:26:34;7.35;;;2.05;;
37241;SDS011;23135;51.078;12.108;2024-03-17T09:29:00;5.22;;;1.00;;
37241;SDS011;23135;51.078;12.108;2024-03-17T09:31:26;4.80;;;1.80;;
37241;SDS011;23135;51.078;12.108;2024-03-17T09:33:52;5.60;;;0.90;;
37241;SDS011;23135;51.078;12.108;2024-03-17T09:36:17;4.68;;;1.35;;
37241;SDS011;23135;51.078;12.108;2024-03-17T09:38:43;6.18;;;1.65;;
37241;SDS011;23135;51.078;12.108;2024-03-17T09:41:18;4.25;;;1.48;;
37241;SDS011;23135;51.078;12.108;2024-03-17T09:43:50;8.48;;;1.27;;
37241;SDS011;23135;51.078;12.108;2024-03-17T09:46:18;10.38;;;1.33;;
37241;SDS011;23135;51.078;12.108;2024-03-17T09:48:44;3.88;;;1.52;;
37241;SDS011;23135;51.078;12.108;2024-03-17T09:51:16;9.27;;;1.05;;
37241;SDS011;23135;51.078;12.108;2024-03-17T09:53:47;7.68;;;1.50;;
37241;SDS011;23135;51.078;12.108;2024-03-17T09:56:13;6.38;;;1.52;;
37241;SDS011;23135;51.078;12.108;2024-03-17T09:58:41;7.07;;;1.10;;
37241;SDS011;23135;51.078;12.108;2024-03-17T10:01:10;7.18;;;1.08;;
37241;SDS011;23135;51.078;12.108;2024-03-17T10:06:21;5.22;;;1.65;;
37241;SDS011;23135;51.078;12.108;2024-03-17T10:08:49;3.65;;;0.65;;
37241;SDS011;23135;51.078;12.108;2024-03-17T10:11:19;2.55;;;1.00;;
37241;SDS011;23135;51.078;12.108;2024-03-17T10:13:46;5.07;;;1.48;;
37241;SDS011;23135;51.078;12.108;2024-03-17T10:16:23;9.25;;;1.65;;
37241;SDS011;23135;51.078;12.108;2024-03-17T10:18:50;2.70;;;1.13;;
37241;SDS011;23135;51.078;12.108;2024-03-17T10:21:30;3.33;;;0.55;;
37241;SDS011;23135;51.078;12.108;2024-03-17T10:24:12;5.75;;;1.05;;
37241;SDS011;23135;51.078;12.108;2024-03-17T10:26:48;3.80;;;1.10;;
37241;SDS011;23135;51.078;12.108;2024-03-17T10:29:24;3.25;;;0.45;;
37241;SDS011;23135;51.078;12.108;2024-03-17T10:31:58;3.85;;;0.68;;
37241;SDS011;23135;51.078;12.108;2024-03-17T10:34:26;2.47;;;1.00;;
37241;SDS011;23135;51.078;12.108;2024-03-17T10:37:15;1.88;;;0.85;;
37241;SDS011;23135;51.078;12.108;2024-03-17T10:39:48;6.70;;;1.65;;
37241;SDS011;23135;51.078;12.108;2024-03-17T10:42:20;4.93;;;0.98;;
37241;SDS011;23135;51.078;12.108;2024-03-17T10:44:49;5.85;;;1.55;;
37241;SDS011;23135;51.078;12.108;2024-03-17T10:47:24;5.53;;;1.23;;
37241;SDS011;23135;51.078;12.108;2024-03-17T10:49:52;3.03;;;0.98;;
37241;SDS011;23135;51.078;12.108;2024-03-17T10:52:19;4.78;;;1.60;;
37241;SDS011;23135;51.078;12.108;2024-03-17T10:54:46;5.40;;;1.05;;
37241;SDS011;23135;51.078;12.108;2024-03-17T10:59:52;1.90;;;0.90;;
37241;SDS011;23135;51.078;12.108;2024-03-17T11:04:43;5.60;;;1.10;;
37241;SDS011;23135;51.078;12.108;2024-03-17T11:07:11;3.22;;;1.17;;
37241;SDS011;23135;51.078;12.108;2024-03-17T11:09:41;4.85;;;1.33;;
37241;SDS011;23135;51.078;12.108;2024-03-17T11:12:55;5.18;;;1.30;;
37241;SDS011;23135;51.078;12.108;2024-03-17T11:21:00;7.43;;;1.10;;
37241;SDS011;23135;51.078;12.108;2024-03-17T11:23:35;9.60;;;1.65;;
37241;SDS011;23135;51.078;12.108;2024-03-17T11:26:02;2.28;;;0.90;;
37241;SDS011;23135;51.078;12.108;2024-03-17T11:34:25;5.07;;;0.80;;
37241;SDS011;23135;51.078;12.108;2024-03-17T11:36:57;3.28;;;0.88;;
37241;SDS011;23135;51.078;12.108;2024-03-17T11:42:12;7.20;;;1.02;;
37241;SDS011;23135;51.078;12.108;2024-03-17T11:44:39;4.43;;;1.13;;
37241;SDS011;23135;51.078;12.108;2024-03-17T11:47:08;4.95;;;0.90;;
37241;SDS011;23135;51.078;12.108;2024-03-17T11:49:40;3.28;;;1.35;;
37241;SDS011;23135;51.078;12.108;2024-03-17T11:52:15;2.75;;;1.48;;
37241;SDS011;23135;51.078;12.108;2024-03-17T11:54:45;3.47;;;1.48;;
37241;SDS011;23135;51.078;12.108;2024-03-17T11:57:22;5.15;;;1.17;;
37241;SDS011;23135;51.078;12.108;2024-03-17T11:59:49;7.85;;;2.05;;
37241;SDS011;23135;51.078;12.108;2024-03-17T12:02:16;6.68;;;1.60;;
37241;SDS011;23135;51.078;12.108;2024-03-17T12:04:45;4.82;;;1.33;;
37241;SDS011;23135;51.078;12.108;2024-03-17T12:07:12;3.22;;;1.05;;
37241;SDS011;23135;51.078;12.108;2024-03-17T12:09:42;4.32;;;0.80;;
37241;SDS011;23135;51.078;12.108;2024-03-17T12:14:40;5.45;;;1.38;;
37241;SDS011;23135;51.078;12.108;2024-03-17T12:17:09;5.15;;;1.38;;
37241;SDS011;23135;51.078;12.108;2024-03-17T12:19:36;3.15;;;0.85;;
37241;SDS011;23135;51.078;12.108;2024-03-17T12:22:07;3.00;;;1.23;;
37241;SDS011;23135;51.078;12.108;2024-03-17T12:24:35;3.53;;;1.15;;
37241;SDS011;23135;51.078;12.108;2024-03-17T12:27:03;5.65;;;0.93;;
37241;SDS011;23135;51.078;12.108;2024-03-17T12:29:34;1.85;;;0.88;;
37241;SDS011;23135;51.078;12.108;2024-03-17T12:32:04;3.65;;;1.05;;
37241;SDS011;23135;51.078;12.108;2024-03-17T12:34:36;4.35;;;1.08;;
37241;SDS011;23135;51.078;12.108;2024-03-17T12:37:02;1.77;;;0.85;;
37241;SDS011;23135;51.078;12.108;2024-03-17T12:39:32;3.25;;;0.95;;
37241;SDS011;23135;51.078;12.108;2024-03-17T12:42:02;5.13;;;0.70;;
37241;SDS011;23135;51.078;12.108;2024-03-17T12:44:55;4.95;;;0.98;;
37241;SDS011;23135;51.078;12.108;2024-03-17T12:47:25;4.75;;;1.30;;
37241;SDS011;23135;51.078;12.108;2024-03-17T12:49:53;5.20;;;1.38;;
37241;SDS011;23135;51.078;12.108;2024-03-17T12:57:49;2.10;;;0.68;;
37241;SDS011;23135;51.078;12.108;2024-03-17T13:01:07;3.45;;;0.80;;
37241;SDS011;23135;51.078;12.108;2024-03-17T13:03:33;3.65;;;1.15;;
37241;SDS011;23135;51.078;12.108;2024-03-17T13:06:00;3.25;;;1.60;;
37241;SDS011;23135;51.078;12.108;2024-03-17T13:08:27;2.40;;;1.08;;
37241;SDS011;23135;51.078;12.108;2024-03-17T13:10:53;4.68;;;0.93;;
37241;SDS011;23135;51.078;12.108;2024-03-17T13:13:19;3.55;;;0.80;;
37241;SDS011;23135;51.078;12.108;2024-03-17T13:15:44;2.35;;;0.93;;
37241;SDS011;23135;51.078;12.108;2024-03-17T13:18:15;4.22;;;0.90;;
37241;SDS011;23135;51.078;12.108;2024-03-17T13:20:43;3.88;;;1.02;;
37241;SDS011;23135;51.078;12.108;2024-03-17T13:23:10;7.28;;;1.88;;
37241;SDS011;23135;51.078;12.108;2024-03-17T13:25:36;5.07;;;1.42;;
37241;SDS011;23135;51.078;12.108;2024-03-17T13:28:02;3.72;;;0.80;;
37241;SDS011;23135;51.078;12.108;2024-03-17T13:30:29;4.05;;;1.10;;
37241;SDS011;23135;51.078;12.108;2024-03-17T13:32:55;3.10;;;1.00;;
37241;SDS011;23135;51.078;12.108;2024-03-17T13:35:25;1.58;;;0.63;;
37241;SDS011;23135;51.078;12.108;2024-03-17T13:37:52;1.98;;;1.33;;
37241;SDS011;23135;51.078;12.108;2024-03-17T13:40:19;7.43;;;2.17;;
37241;SDS011;23135;51.078;12.108;2024-03-17T13:42:46;1.52;;;1.00;;
37241;SDS011;23135;51.078;12.108;2024-03-17T13:45:13;1.35;;;1.08;;
37241;SDS011;23135;51.078;12.108;2024-03-17T13:47:39;5.63;;;1.58;;
37241;SDS011;23135;51.078;12.108;2024-03-17T13:50:05;1.83;;;0.98;;
37241;SDS011;23135;51.078;12.108;2024-03-17T13:52:43;3.72;;;0.95;;
37241;SDS011;23135;51.078;12.108;2024-03-17T13:55:16;2.63;;;1.20;;
37241;SDS011;23135;51.078;12.108;2024-03-17T13:57:50;4.72;;;2.13;;
37241;SDS011;23135;51.078;12.108;2024-03-17T14:00:20;2.85;;;0.98;;
37241;SDS011;23135;51.078;12.108;2024-03-17T14:02:47;2.72;;;0.98;;
37241;SDS011;23135;51.078;12.108;2024-03-17T14:05:14;4.40;;;1.00;;
37241;SDS011;23135;51.078;12.108;2024-03-17T14:07:41;3.28;;;1.35;;
37241;SDS011;23135;51.078;12.108;2024-03-17T14:10:08;3.63;;;1.38;;
37241;SDS011;23135;51.078;12.108;2024-03-17T14:12:38;4.18;;;1.33;;
37241;SDS011;23135;51.078;12.108;2024-03-17T14:15:10;6.95;;;2.17;;
37241;SDS011;23135;51.078;12.108;2024-03-17T14:17:40;2.88;;;0.80;;
37241;SDS011;23135;51.078;12.108;2024-03-17T14:20:06;4.50;;;1.63;;
37241;SDS011;23135;51.078;12.108;2024-03-17T14:22:35;3.13;;;1.50;;
37241;SDS011;23135;51.078;12.108;2024-03-17T14:25:04;4.50;;;1.77;;
37241;SDS011;23135;51.078;12.108;2024-03-17T14:27:31;4.32;;;1.52;;
37241;SDS011;23135;51.078;12.108;2024-03-17T14:29:56;2.35;;;0.85;;
37241;SDS011;23135;51.078;12.108;2024-03-17T14:32:22;1.70;;;1.00;;
37241;SDS011;23135;51.078;12.108;2024-03-17T14:34:48;2.22;;;1.27;;
37241;SDS011;23135;51.078;12.108;2024-03-17T14:37:14;2.10;;;1.13;;
37241;SDS011;23135;51.078;12.108;2024-03-17T14:39:39;3.63;;;1.67;;
37241;SDS011;23135;51.078;12.108;2024-03-17T14:42:05;4.47;;;1.58;;
37241;SDS011;23135;51.078;12.108;2024-03-17T14:44:32;4.75;;;1.55;;
37241;SDS011;23135;51.078;12.108;2024-03-17T14:47:00;4.13;;;1.63;;
37241;SDS011;23135;51.078;12.108;2024-03-17T14:49:25;2.80;;;1.40;;
37241;SDS011;23135;51.078;12.108;2024-03-17T14:51:52;2.40;;;1.15;;
37241;SDS011;23135;51.078;12.108;2024-03-17T14:54:17;3.53;;;1.42;;
37241;SDS011;23135;51.078;12.108;2024-03-17T14:56:43;3.97;;;1.52;;
37241;SDS011;23135;51.078;12.108;2024-03-17T14:59:09;4.82;;;1.35;;
37241;SDS011;23135;51.078;12.108;2024-03-17T15:01:37;4.40;;;1.45;;
37241;SDS011;23135;51.078;12.108;2024-03-17T15:04:02;4.43;;;1.58;;
37241;SDS011;23135;51.078;12.108;2024-03-17T15:06:28;4.88;;;1.15;;
37241;SDS011;23135;51.078;12.108;2024-03-17T15:08:53;3.63;;;1.73;;
37241;SDS011;23135;51.078;12.108;2024-03-17T15:11:19;4.50;;;1.33;;
37241;SDS011;23135;51.078;12.108;2024-03-17T15:13:45;4.03;;;1.42;;